Terminal Aerodrome Forecast
Issued by NWS

Home | Current Version | Previous Version | Text Only | Print | Product List | Glossary On
Versions: 1 2 3 4 5 6 7 8 9 10 11 12 13 14
493
FTAK31 PAJN 262325
TAFASI
TAF
PASI 262325Z 2700/2724 29008KT P6SM BKN030 OVC100
      TEMPO 2700/2703 -SHRA OVC030
     FM271200 31004KT P6SM VCSH OVC035=

USA.gov is the U.S. government's official web portal to all federal, state and local government web resources and services.